createdAt,value
2023-02-05T00:00:52.306Z,0.40
2023-02-05T00:01:52.320Z,0.50
2023-02-05T00:02:52.291Z,0.50
2023-02-05T00:03:52.282Z,0.40
2023-02-05T00:04:52.292Z,0.40
2023-02-05T00:05:52.282Z,0.50
2023-02-05T00:06:52.291Z,0.40
2023-02-05T00:07:52.279Z,0.40
2023-02-05T00:08:52.288Z,0.40
2023-02-05T00:09:52.276Z,0.50
2023-02-05T00:10:52.284Z,0.50
2023-02-05T00:11:52.278Z,0.40
2023-02-05T00:12:52.280Z,0.30
2023-02-05T00:13:52.275Z,0.40
2023-02-05T00:14:52.278Z,0.40
2023-02-05T00:15:52.269Z,0.40
2023-02-05T00:16:52.361Z,0.40
2023-02-05T00:17:52.294Z,0.40
2023-02-05T00:18:52.272Z,0.50
2023-02-05T00:19:52.273Z,0.40
2023-02-05T00:20:52.271Z,0.50
2023-02-05T00:21:52.264Z,0.40
2023-02-05T00:22:52.269Z,0.50
2023-02-05T00:23:52.275Z,0.30
2023-02-05T00:24:52.274Z,0.40
2023-02-05T00:25:52.259Z,0.40
2023-02-05T00:26:52.266Z,0.50
2023-02-05T00:27:52.346Z,0.40
2023-02-05T00:28:52.263Z,0.50
2023-02-05T00:29:52.272Z,0.40
2023-02-05T00:30:52.368Z,0.40
2023-02-05T00:31:52.307Z,0.40
2023-02-05T00:32:52.259Z,0.40
2023-02-05T00:33:52.278Z,0.50
2023-02-05T00:34:52.257Z,0.40
2023-02-05T00:35:52.251Z,0.40
2023-02-05T00:36:52.255Z,0.40
2023-02-05T00:37:52.249Z,0.40
2023-02-05T00:38:52.253Z,0.50
2023-02-05T00:39:52.244Z,0.40
2023-02-05T00:40:52.251Z,0.40
2023-02-05T00:41:52.245Z,0.50
2023-02-05T00:42:52.249Z,0.50
2023-02-05T00:43:52.241Z,0.50
2023-02-05T00:44:52.247Z,0.50
2023-02-05T00:45:52.276Z,0.40
2023-02-05T00:46:52.244Z,0.50
2023-02-05T00:47:52.236Z,0.40
2023-02-05T00:48:52.242Z,0.60
2023-02-05T00:49:52.268Z,0.60
2023-02-05T00:50:52.242Z,0.60
2023-02-05T00:51:52.239Z,0.40
2023-02-05T00:52:52.239Z,0.40
2023-02-05T00:53:52.230Z,0.70
2023-02-05T00:54:52.238Z,0.70
2023-02-05T00:55:52.228Z,0.40
2023-02-05T00:56:52.236Z,0.50
2023-02-05T00:57:52.233Z,0.50
2023-02-05T00:58:52.236Z,0.50
2023-02-05T00:59:52.226Z,0.50
2023-02-05T01:00:52.236Z,0.50
2023-02-05T01:01:52.225Z,0.60
2023-02-05T01:02:52.278Z,0.40
2023-02-05T01:03:52.224Z,0.60
2023-02-05T01:04:52.230Z,0.60
2023-02-05T01:05:52.248Z,0.40
2023-02-05T01:06:52.229Z,0.40
2023-02-05T01:07:52.219Z,0.40
2023-02-05T01:08:52.266Z,0.50
2023-02-05T01:09:52.219Z,0.60
2023-02-05T01:10:52.228Z,0.60
2023-02-05T01:11:52.229Z,0.50
2023-02-05T01:12:52.229Z,0.50
2023-02-05T01:13:52.220Z,0.50
2023-02-05T01:14:52.224Z,0.40
2023-02-05T01:15:52.250Z,0.50
2023-02-05T01:16:52.220Z,0.50
2023-02-05T01:17:52.215Z,0.50
2023-02-05T01:18:52.218Z,0.50
2023-02-05T01:19:52.210Z,0.40
2023-02-05T01:20:52.219Z,0.60
2023-02-05T01:21:52.234Z,0.60
2023-02-05T01:22:52.212Z,0.50
2023-02-05T01:23:52.237Z,0.50
2023-02-05T01:24:52.226Z,0.60
2023-02-05T01:25:52.204Z,0.50
2023-02-05T01:26:52.210Z,0.70
2023-02-05T01:27:52.225Z,0.60
2023-02-05T01:28:52.225Z,0.50
2023-02-05T01:29:52.199Z,0.50
2023-02-05T01:30:52.297Z,0.50
2023-02-05T01:31:52.272Z,0.60
2023-02-05T01:32:52.207Z,0.50
2023-02-05T01:33:52.196Z,0.60
2023-02-05T01:34:52.203Z,0.60
2023-02-05T01:35:52.195Z,0.40
2023-02-05T01:36:52.200Z,0.70
2023-02-05T01:37:52.216Z,0.50
2023-02-05T01:38:52.196Z,0.50
2023-02-05T01:39:52.192Z,0.60
2023-02-05T01:40:52.198Z,0.50
2023-02-05T01:41:52.187Z,0.50
2023-02-05T01:42:52.192Z,0.50
2023-02-05T01:43:52.182Z,0.50
2023-02-05T01:44:52.189Z,0.60
2023-02-05T01:45:52.183Z,0.50
2023-02-05T01:46:52.186Z,0.50
2023-02-05T01:47:52.181Z,0.50
2023-02-05T01:48:52.184Z,0.50
2023-02-05T01:49:52.174Z,0.60
2023-02-05T01:50:52.188Z,0.50
2023-02-05T01:51:52.174Z,0.60
2023-02-05T01:52:52.180Z,0.50
2023-02-05T01:53:52.194Z,0.50
2023-02-05T01:54:52.176Z,0.50
2023-02-05T01:55:52.169Z,0.60
2023-02-05T01:56:52.175Z,0.70
2023-02-05T01:57:52.167Z,0.50
2023-02-05T01:58:52.193Z,0.50
2023-02-05T01:59:52.173Z,0.50
2023-02-05T02:00:52.171Z,0.60
2023-02-05T02:01:52.206Z,0.60
2023-02-05T02:02:52.167Z,0.60
2023-02-05T02:03:52.158Z,0.60
2023-02-05T02:04:52.211Z,0.50
2023-02-05T02:05:52.158Z,0.70
2023-02-05T02:06:52.161Z,0.50
2023-02-05T02:07:52.158Z,0.50
2023-02-05T02:08:52.160Z,0.60
2023-02-05T02:09:52.185Z,0.60
2023-02-05T02:10:52.175Z,0.70
2023-02-05T02:11:52.148Z,0.60
2023-02-05T02:12:52.165Z,0.40
2023-02-05T02:13:52.153Z,0.50
2023-02-05T02:14:52.160Z,0.90
2023-02-05T02:15:52.163Z,0.60
2023-02-05T02:16:52.153Z,0.50
2023-02-05T02:17:52.144Z,0.80
2023-02-05T02:18:52.150Z,0.50
2023-02-05T02:19:52.154Z,0.50
2023-02-05T02:20:52.157Z,0.60
2023-02-05T02:21:52.141Z,0.50
2023-02-05T02:22:52.147Z,0.50
2023-02-05T02:23:52.142Z,0.70
2023-02-05T02:24:52.146Z,0.80
2023-02-05T02:25:52.168Z,0.60
2023-02-05T02:26:52.149Z,0.50
2023-02-05T02:27:52.151Z,0.60
2023-02-05T02:28:52.149Z,0.70
2023-02-05T02:29:52.134Z,0.70
2023-02-05T02:30:52.274Z,0.50
2023-02-05T02:31:52.130Z,0.40
2023-02-05T02:32:52.138Z,0.50
2023-02-05T02:33:52.131Z,0.40
2023-02-05T02:34:52.134Z,0.50
2023-02-05T02:35:52.135Z,0.50
2023-02-05T02:36:52.132Z,0.50
2023-02-05T02:37:52.126Z,0.90
2023-02-05T02:38:52.129Z,0.50
2023-02-05T02:39:52.122Z,0.70
2023-02-05T02:40:52.129Z,0.60
2023-02-05T02:41:52.142Z,0.60
2023-02-05T02:42:52.130Z,0.50
2023-02-05T02:43:52.138Z,0.50
2023-02-05T02:44:52.135Z,0.60
2023-02-05T02:45:52.117Z,0.60
2023-02-05T02:46:52.200Z,0.50
2023-02-05T02:47:52.117Z,0.60
2023-02-05T02:48:52.125Z,0.50
2023-02-05T02:49:52.118Z,0.50
2023-02-05T02:50:52.127Z,0.60
2023-02-05T02:51:52.118Z,0.60
2023-02-05T02:52:52.121Z,0.60
2023-02-05T02:53:52.116Z,0.60
2023-02-05T02:54:52.124Z,0.60
2023-02-05T02:55:52.112Z,0.70
2023-02-05T02:56:52.121Z,0.40
2023-02-05T02:57:52.133Z,0.70
2023-02-05T02:58:52.119Z,0.60
2023-02-05T02:59:52.110Z,0.60
2023-02-05T03:00:52.217Z,0.70
2023-02-05T03:01:54.006Z,0.60
2023-02-05T03:02:52.119Z,0.50
2023-02-05T03:03:52.133Z,0.60
2023-02-05T03:04:52.113Z,0.60
2023-02-05T03:05:52.109Z,0.50
2023-02-05T03:06:52.110Z,0.60
2023-02-05T03:07:52.102Z,0.60
2023-02-05T03:08:52.108Z,0.40
2023-02-05T03:09:52.100Z,0.70
2023-02-05T03:10:52.106Z,0.50
2023-02-05T03:11:52.105Z,0.60
2023-02-05T03:12:52.119Z,0.80
2023-02-05T03:13:58.102Z,0.50
2023-02-05T03:14:52.107Z,0.70
2023-02-05T03:15:52.168Z,0.80
2023-02-05T03:16:52.102Z,0.60
2023-02-05T03:17:52.117Z,0.70
2023-02-05T03:18:52.099Z,0.60
2023-02-05T03:19:52.093Z,0.60
2023-02-05T03:20:52.109Z,0.60
2023-02-05T03:21:52.093Z,0.50
2023-02-05T03:22:52.092Z,0.60
2023-02-05T03:23:52.094Z,0.40
2023-02-05T03:24:52.091Z,0.60
2023-02-05T03:25:52.083Z,0.50
2023-02-05T03:26:52.090Z,0.70
2023-02-05T03:27:52.127Z,0.60
2023-02-05T03:28:52.093Z,0.60
2023-02-05T03:29:52.092Z,0.60
2023-02-05T03:30:52.137Z,0.70
2023-02-05T03:31:52.146Z,0.60
2023-02-05T03:32:52.081Z,0.60
2023-02-05T03:33:52.099Z,0.60
2023-02-05T03:34:52.080Z,0.70
2023-02-05T03:35:52.070Z,0.60
2023-02-05T03:36:52.078Z,0.60
2023-02-05T03:37:52.069Z,0.60
2023-02-05T03:38:52.085Z,0.50
2023-02-05T03:39:52.071Z,0.60
2023-02-05T03:40:52.078Z,0.70
2023-02-05T03:41:52.066Z,0.70
2023-02-05T03:42:52.070Z,0.50
2023-02-05T03:43:52.063Z,0.70
2023-02-05T03:44:52.072Z,0.60
2023-02-05T03:45:52.060Z,0.70
2023-02-05T03:46:52.068Z,0.60
2023-02-05T03:47:52.059Z,0.50
2023-02-05T03:48:52.064Z,0.60
2023-02-05T03:49:52.082Z,1.00
2023-02-05T03:50:52.073Z,0.70
2023-02-05T03:51:52.056Z,0.70
2023-02-05T03:52:52.060Z,0.70
2023-02-05T03:53:52.052Z,0.60
2023-02-05T03:54:52.056Z,0.60
2023-02-05T03:55:52.049Z,0.50
2023-02-05T03:56:52.054Z,0.50
2023-02-05T03:57:52.049Z,0.60
2023-02-05T03:58:52.050Z,0.80
2023-02-05T03:59:52.043Z,0.60
2023-02-05T04:00:52.045Z,0.60
2023-02-05T04:01:52.049Z,0.80
2023-02-05T04:02:52.039Z,0.70
2023-02-05T04:03:52.046Z,0.60
2023-02-05T04:04:52.036Z,0.60
2023-02-05T04:05:52.073Z,0.60
2023-02-05T04:06:52.033Z,0.50
2023-02-05T04:07:52.061Z,0.60
2023-02-05T04:08:52.032Z,0.60
2023-02-05T04:09:52.038Z,0.60
2023-02-05T04:10:52.043Z,0.60
2023-02-05T04:11:52.040Z,0.60
2023-02-05T04:12:52.034Z,0.80
2023-02-05T04:13:52.033Z,0.90
2023-02-05T04:14:52.038Z,0.60
2023-02-05T04:15:52.029Z,0.60
2023-02-05T04:16:52.024Z,0.60
2023-02-05T04:17:52.029Z,0.50
2023-02-05T04:18:52.020Z,0.60
2023-02-05T04:19:52.026Z,0.50
2023-02-05T04:20:52.016Z,0.60
2023-02-05T04:21:52.044Z,0.60
2023-02-05T04:22:52.014Z,0.60
2023-02-05T04:23:52.095Z,0.60
2023-02-05T04:24:52.012Z,0.70
2023-02-05T04:25:52.025Z,0.60
2023-02-05T04:26:52.010Z,0.60
2023-02-05T04:27:52.119Z,0.70
2023-02-05T04:28:52.015Z,0.60
2023-02-05T04:29:52.017Z,0.50
2023-02-05T04:30:52.052Z,0.70
2023-02-05T04:31:52.082Z,0.60
2023-02-05T04:32:52.011Z,0.60
2023-02-05T04:33:52.016Z,0.60
2023-02-05T04:34:52.006Z,0.80
2023-02-05T04:35:52.012Z,0.50
2023-02-05T04:36:52.007Z,0.60
2023-02-05T04:37:52.043Z,0.70
2023-02-05T04:38:52.007Z,0.70
2023-02-05T04:39:52.012Z,0.70
2023-02-05T04:40:52.012Z,0.60
2023-02-05T04:41:52.019Z,0.60
2023-02-05T04:42:52.004Z,0.90
2023-02-05T04:43:52.006Z,0.70
2023-02-05T04:44:51.998Z,0.70
2023-02-05T04:45:52.028Z,0.50
2023-02-05T04:46:52.007Z,0.50
2023-02-05T04:47:52.009Z,0.60
2023-02-05T04:48:51.994Z,0.60
2023-02-05T04:49:52.002Z,0.70
2023-02-05T04:50:51.992Z,0.60
2023-02-05T04:51:51.999Z,0.60
2023-02-05T04:52:51.992Z,0.70
2023-02-05T04:53:52.045Z,0.60
2023-02-05T04:54:51.987Z,0.60
2023-02-05T04:55:51.994Z,0.60
2023-02-05T04:56:51.996Z,0.50
2023-02-05T04:57:52.795Z,0.80
2023-02-05T04:58:51.985Z,0.60
2023-02-05T04:59:51.988Z,0.60
2023-02-05T05:00:52.022Z,0.70
2023-02-05T05:01:51.992Z,0.70
2023-02-05T05:02:51.982Z,0.90
2023-02-05T05:03:52.002Z,0.90
2023-02-05T05:04:51.980Z,0.50
2023-02-05T05:05:51.983Z,0.70
2023-02-05T05:06:51.986Z,0.60
2023-02-05T05:07:51.982Z,0.60
2023-02-05T05:08:51.978Z,0.60
2023-02-05T05:09:52.533Z,0.80
2023-02-05T05:10:51.978Z,0.70
2023-02-05T05:11:51.977Z,0.60
2023-02-05T05:12:51.972Z,0.70
2023-02-05T05:13:51.982Z,0.60
2023-02-05T05:14:51.967Z,0.70
2023-02-05T05:15:52.011Z,0.60
2023-02-05T05:16:51.965Z,0.60
2023-02-05T05:17:51.973Z,0.50
2023-02-05T05:18:51.968Z,0.60
2023-02-05T05:19:51.970Z,0.50
2023-02-05T05:20:51.961Z,0.70
2023-02-05T05:21:51.969Z,0.60
2023-02-05T05:22:51.980Z,0.70
2023-02-05T05:23:51.967Z,0.60
2023-02-05T05:24:51.958Z,0.70
2023-02-05T05:25:51.996Z,0.60
2023-02-05T05:26:51.954Z,0.60
2023-02-05T05:27:51.962Z,0.50
2023-02-05T05:28:51.953Z,0.60
2023-02-05T05:29:51.960Z,0.60
2023-02-05T05:30:51.970Z,0.60
2023-02-05T05:31:51.966Z,0.60
2023-02-05T05:32:51.949Z,0.60
2023-02-05T05:33:51.956Z,0.60
2023-02-05T05:34:51.953Z,0.70
2023-02-05T05:35:51.953Z,0.60
2023-02-05T05:36:51.965Z,0.60
2023-02-05T05:37:51.953Z,0.50
2023-02-05T05:38:51.943Z,0.50
2023-02-05T05:39:51.950Z,0.60
2023-02-05T05:40:51.946Z,0.60
2023-02-05T05:41:51.974Z,0.70
2023-02-05T05:42:51.952Z,0.80
2023-02-05T05:43:51.967Z,0.50
2023-02-05T05:44:51.960Z,0.60
2023-02-05T05:45:51.964Z,0.50
2023-02-05T05:46:51.934Z,0.60
2023-02-05T05:47:51.941Z,0.60
2023-02-05T05:48:51.940Z,0.50
2023-02-05T05:49:51.939Z,0.60
2023-02-05T05:50:51.931Z,0.70
2023-02-05T05:51:51.937Z,0.60
2023-02-05T05:52:51.929Z,0.70
2023-02-05T05:53:51.936Z,0.50
2023-02-05T05:54:51.925Z,0.50
2023-02-05T05:55:51.932Z,0.70
2023-02-05T05:56:51.925Z,0.60
2023-02-05T05:57:51.953Z,0.60
2023-02-05T05:58:51.932Z,0.60
2023-02-05T05:59:51.930Z,0.50
2023-02-05T06:00:51.923Z,0.60
2023-02-05T06:01:51.923Z,0.70
2023-02-05T06:02:51.982Z,0.50
2023-02-05T06:03:51.926Z,0.50
2023-02-05T06:04:51.967Z,0.60
2023-02-05T06:05:51.918Z,0.50
2023-02-05T06:06:51.910Z,0.50
2023-02-05T06:07:51.916Z,0.60
2023-02-05T06:08:51.914Z,0.60
2023-02-05T06:09:51.912Z,0.60
2023-02-05T06:10:51.903Z,0.50
2023-02-05T06:11:51.912Z,0.50
2023-02-05T06:12:51.899Z,0.60
2023-02-05T06:13:51.933Z,0.50
2023-02-05T06:14:51.896Z,0.60
2023-02-05T06:15:51.940Z,0.60
2023-02-05T06:16:51.896Z,0.50
2023-02-05T06:17:51.902Z,0.50
2023-02-05T06:18:51.892Z,0.40
2023-02-05T06:19:51.898Z,0.60
2023-02-05T06:20:51.907Z,0.50
2023-02-05T06:21:51.897Z,0.40
2023-02-05T06:22:51.889Z,0.40
2023-02-05T06:23:51.894Z,0.60
2023-02-05T06:24:51.885Z,0.50
2023-02-05T06:25:51.892Z,0.60
2023-02-05T06:26:51.887Z,0.60
2023-02-05T06:27:51.905Z,0.40
2023-02-05T06:28:51.880Z,0.50
2023-02-05T06:29:51.915Z,0.70
2023-02-05T06:30:51.949Z,0.50
2023-02-05T06:31:52.034Z,0.60
2023-02-05T06:32:51.877Z,0.50
2023-02-05T06:33:51.884Z,0.50
2023-02-05T06:34:51.876Z,0.50
2023-02-05T06:35:51.904Z,0.40
2023-02-05T06:36:51.874Z,0.60
2023-02-05T06:37:51.881Z,0.50
2023-02-05T06:38:52.029Z,0.50
2023-02-05T06:39:51.880Z,0.50
2023-02-05T06:40:51.869Z,0.40
2023-02-05T06:41:51.880Z,0.50
2023-02-05T06:42:51.869Z,0.40
2023-02-05T06:43:51.888Z,0.50
2023-02-05T06:44:51.866Z,0.50
2023-02-05T06:45:51.906Z,0.60
2023-02-05T06:46:51.863Z,0.50
2023-02-05T06:47:51.870Z,0.50
2023-02-05T06:48:51.864Z,0.60
2023-02-05T06:49:51.871Z,0.60
2023-02-05T06:50:51.861Z,0.60
2023-02-05T06:51:51.869Z,0.50
2023-02-05T06:52:51.868Z,0.50
2023-02-05T06:53:51.863Z,0.50
2023-02-05T06:54:51.855Z,0.70
2023-02-05T06:55:51.867Z,0.50
2023-02-05T06:56:51.853Z,0.50
2023-02-05T06:57:51.869Z,0.50
2023-02-05T06:58:51.849Z,0.50
2023-02-05T06:59:51.859Z,0.50
2023-02-05T07:00:51.848Z,0.50
2023-02-05T07:01:51.948Z,0.60
2023-02-05T07:02:51.880Z,0.70
2023-02-05T07:03:51.853Z,0.50
2023-02-05T07:04:51.845Z,0.50
2023-02-05T07:05:51.855Z,0.50
2023-02-05T07:06:51.845Z,0.40
2023-02-05T07:07:51.851Z,0.50
2023-02-05T07:08:51.844Z,0.50
2023-02-05T07:09:51.849Z,0.50
2023-02-05T07:10:51.846Z,0.50
2023-02-05T07:11:51.853Z,0.50
2023-02-05T07:12:51.839Z,0.40
2023-02-05T07:13:51.845Z,0.50
2023-02-05T07:14:51.837Z,0.50
2023-02-05T07:15:51.866Z,0.50
2023-02-05T07:16:51.846Z,0.50
2023-02-05T07:17:51.867Z,0.40
2023-02-05T07:18:51.835Z,0.50
2023-02-05T07:19:51.857Z,0.50
2023-02-05T07:20:51.831Z,0.40
2023-02-05T07:21:51.837Z,0.50
2023-02-05T07:22:51.828Z,0.40
2023-02-05T07:23:51.878Z,0.50
2023-02-05T07:24:51.826Z,0.50
2023-02-05T07:25:51.847Z,0.50
2023-02-05T07:26:51.824Z,0.40
2023-02-05T07:27:51.986Z,0.50
2023-02-05T07:28:51.832Z,0.50
2023-02-05T07:29:51.879Z,0.40
2023-02-05T07:30:51.853Z,0.40
2023-02-05T07:31:51.999Z,0.50
2023-02-05T07:32:51.819Z,0.50
2023-02-05T07:33:51.871Z,0.50
2023-02-05T07:34:51.826Z,0.50
2023-02-05T07:35:51.822Z,0.50
2023-02-05T07:36:51.836Z,0.40
2023-02-05T07:37:51.825Z,0.50
2023-02-05T07:38:51.809Z,0.40
2023-02-05T07:39:51.817Z,0.40
2023-02-05T07:40:51.812Z,0.50
2023-02-05T07:41:51.812Z,0.50
2023-02-05T07:42:51.802Z,0.50
2023-02-05T07:43:51.820Z,0.40
2023-02-05T07:44:51.802Z,0.50
2023-02-05T07:45:51.805Z,0.40
2023-02-05T07:46:51.891Z,0.40
2023-02-05T07:47:51.802Z,0.40
2023-02-05T07:48:51.795Z,0.50
2023-02-05T07:49:51.826Z,0.50
2023-02-05T07:50:51.793Z,0.40
2023-02-05T07:51:51.803Z,0.40
2023-02-05T07:52:51.794Z,0.50
2023-02-05T07:53:51.795Z,0.50
2023-02-05T07:54:51.785Z,0.40
2023-02-05T07:55:51.795Z,0.50
2023-02-05T07:56:51.790Z,0.40
2023-02-05T07:57:51.790Z,0.50
2023-02-05T07:58:51.781Z,0.40
2023-02-05T07:59:51.798Z,0.40
2023-02-05T08:00:51.806Z,0.50
2023-02-05T08:01:51.790Z,0.40
2023-02-05T08:02:51.777Z,0.40
2023-02-05T08:03:51.820Z,0.40
2023-02-05T08:04:51.774Z,0.60
2023-02-05T08:05:51.927Z,0.50
2023-02-05T08:06:51.777Z,0.50
2023-02-05T08:07:51.780Z,0.40
2023-02-05T08:08:51.781Z,0.40
2023-02-05T08:09:51.792Z,0.40
2023-02-05T08:10:51.768Z,0.50
2023-02-05T08:11:51.774Z,0.50
2023-02-05T08:12:51.768Z,0.50
2023-02-05T08:13:51.776Z,0.50
2023-02-05T08:14:51.764Z,0.40
2023-02-05T08:15:51.771Z,0.40
2023-02-05T08:16:51.771Z,0.40
2023-02-05T08:17:51.761Z,0.50
2023-02-05T08:18:51.770Z,0.40
2023-02-05T08:19:51.758Z,0.40
2023-02-05T08:20:51.769Z,0.50
2023-02-05T08:21:51.778Z,0.40
2023-02-05T08:22:51.770Z,0.40
2023-02-05T08:23:51.753Z,0.40
2023-02-05T08:24:51.761Z,0.40
2023-02-05T08:25:51.753Z,0.50
2023-02-05T08:26:51.758Z,0.40
2023-02-05T08:27:51.853Z,0.40
2023-02-05T08:28:51.757Z,0.50
2023-02-05T08:29:51.755Z,0.50
2023-02-05T08:30:51.777Z,0.40
2023-02-05T08:31:51.775Z,0.40
2023-02-05T08:32:51.752Z,0.40
2023-02-05T08:33:51.744Z,0.40
2023-02-05T08:34:51.751Z,0.40
2023-02-05T08:35:51.741Z,0.50
2023-02-05T08:36:51.751Z,0.50
2023-02-05T08:37:51.769Z,0.40
2023-02-05T08:38:51.748Z,0.40
2023-02-05T08:39:51.736Z,0.50
2023-02-05T08:40:51.743Z,0.60
2023-02-05T08:41:51.735Z,0.60
2023-02-05T08:42:51.741Z,0.60
2023-02-05T08:43:51.734Z,0.60
2023-02-05T08:44:51.741Z,0.40
2023-02-05T08:45:51.748Z,0.40
2023-02-05T08:46:51.743Z,0.40
2023-02-05T08:47:51.728Z,0.40
2023-02-05T08:48:51.735Z,0.50
2023-02-05T08:49:51.728Z,0.40
2023-02-05T08:50:51.739Z,0.40
2023-02-05T08:51:51.724Z,0.40
2023-02-05T08:52:51.732Z,0.40
2023-02-05T08:53:51.748Z,0.40
2023-02-05T08:54:51.729Z,0.40
2023-02-05T08:55:51.720Z,0.40
2023-02-05T08:56:51.731Z,0.30
2023-02-05T08:57:51.718Z,0.40
2023-02-05T08:58:51.724Z,0.30
2023-02-05T08:59:51.717Z,0.30
2023-02-05T09:00:51.747Z,0.30
2023-02-05T09:01:51.713Z,0.40
2023-02-05T09:02:51.719Z,0.40
2023-02-05T09:03:51.711Z,0.40
2023-02-05T09:05:01.877Z,0.40
2023-02-05T09:05:51.714Z,0.50
2023-02-05T09:06:51.715Z,0.40
2023-02-05T09:07:51.708Z,0.50
2023-02-05T09:08:51.713Z,0.40
2023-02-05T09:09:51.726Z,0.40
2023-02-05T09:10:51.712Z,0.40
2023-02-05T09:11:51.701Z,0.40
2023-02-05T09:12:51.708Z,0.40
2023-02-05T09:13:51.699Z,0.40
2023-02-05T09:14:51.705Z,0.40
2023-02-05T09:15:51.701Z,0.40
2023-02-05T09:16:51.733Z,0.40
2023-02-05T09:17:51.715Z,0.40
2023-02-05T09:18:51.701Z,0.40
2023-02-05T09:19:51.707Z,0.40
2023-02-05T09:20:51.699Z,0.50
2023-02-05T09:21:54.086Z,0.40
2023-02-05T09:22:51.699Z,0.30
2023-02-05T09:23:51.691Z,0.40
2023-02-05T09:24:51.698Z,0.40
2023-02-05T09:25:51.714Z,0.30
2023-02-05T09:26:51.696Z,0.40
2023-02-05T09:27:51.769Z,0.30
2023-02-05T09:28:51.700Z,0.40
2023-02-05T09:29:51.747Z,0.40
2023-02-05T09:30:51.790Z,0.50
2023-02-05T09:31:51.735Z,0.40
2023-02-05T09:32:51.691Z,0.50
2023-02-05T09:33:51.701Z,0.40
2023-02-05T09:34:51.689Z,0.40
2023-02-05T09:35:51.681Z,0.40
2023-02-05T09:36:51.690Z,0.40
2023-02-05T09:37:51.684Z,0.40
2023-02-05T09:38:52.696Z,0.40
2023-02-05T09:40:19.582Z,0.40
2023-02-05T09:40:51.686Z,0.40
2023-02-05T09:41:51.700Z,0.30
2023-02-05T09:42:51.753Z,0.40
2023-02-05T09:43:51.682Z,0.40
2023-02-05T09:44:51.680Z,0.50
2023-02-05T09:45:51.711Z,0.40
2023-02-05T09:46:51.677Z,0.40
2023-02-05T09:47:51.669Z,0.40
2023-02-05T09:48:51.685Z,0.40
2023-02-05T09:49:51.668Z,0.40
2023-02-05T09:50:51.682Z,0.50
2023-02-05T09:51:51.664Z,0.40
2023-02-05T09:52:51.670Z,0.40
2023-02-05T09:53:51.664Z,0.40
2023-02-05T09:54:51.666Z,0.40
2023-02-05T09:55:51.660Z,0.40
2023-02-05T09:56:51.663Z,0.50
2023-02-05T09:57:51.680Z,0.40
2023-02-05T09:58:51.660Z,0.40
2023-02-05T09:59:51.653Z,0.40
2023-02-05T10:00:51.659Z,0.50
2023-02-05T10:01:51.650Z,0.40
2023-02-05T10:02:51.655Z,0.40
2023-02-05T10:03:51.647Z,0.40
2023-02-05T10:04:51.655Z,0.40
2023-02-05T10:05:51.652Z,0.40
2023-02-05T10:06:51.651Z,0.40
2023-02-05T10:07:51.642Z,0.50
2023-02-05T10:08:51.663Z,0.40
2023-02-05T10:09:51.640Z,0.40
2023-02-05T10:10:51.647Z,0.60
2023-02-05T10:11:51.638Z,0.50
2023-02-05T10:12:51.648Z,0.40
2023-02-05T10:13:51.671Z,0.40
2023-02-05T10:14:51.642Z,0.30
2023-02-05T10:15:51.657Z,0.40
2023-02-05T10:16:51.639Z,0.40
2023-02-05T10:17:51.632Z,0.40
2023-02-05T10:18:51.636Z,0.40
2023-02-05T10:19:51.628Z,0.40
2023-02-05T10:20:51.639Z,0.30
2023-02-05T10:21:51.630Z,0.40
2023-02-05T10:22:51.632Z,0.40
2023-02-05T10:23:51.625Z,0.50
2023-02-05T10:24:51.630Z,0.40
2023-02-05T10:25:51.624Z,0.40
2023-02-05T10:26:51.633Z,0.40
2023-02-05T10:27:51.668Z,0.40
2023-02-05T10:28:51.628Z,0.40
2023-02-05T10:29:51.647Z,0.40
2023-02-05T10:30:51.813Z,0.50
2023-02-05T10:31:51.691Z,0.40
2023-02-05T10:32:51.626Z,0.40
2023-02-05T10:33:51.618Z,0.50
2023-02-05T10:34:51.624Z,0.40
2023-02-05T10:35:51.621Z,0.40
2023-02-05T10:36:51.622Z,0.40
2023-02-05T10:37:51.614Z,0.40
2023-02-05T10:38:51.619Z,0.40
2023-02-05T10:39:51.610Z,0.40
2023-02-05T10:40:51.618Z,0.40
2023-02-05T10:41:51.607Z,0.40
2023-02-05T10:42:51.620Z,0.30
2023-02-05T10:43:51.604Z,0.50
2023-02-05T10:44:51.615Z,0.40
2023-02-05T10:45:51.628Z,0.40
2023-02-05T10:46:51.769Z,0.30
2023-02-05T10:47:51.600Z,0.40
2023-02-05T10:48:51.643Z,0.40
2023-02-05T10:49:51.597Z,0.40
2023-02-05T10:50:51.606Z,0.30
2023-02-05T10:51:51.596Z,0.40
2023-02-05T10:52:51.604Z,0.30
2023-02-05T10:53:51.594Z,0.40
2023-02-05T10:54:51.601Z,0.40
2023-02-05T10:55:51.594Z,0.50
2023-02-05T10:56:51.599Z,0.40
2023-02-05T10:57:51.590Z,0.40
2023-02-05T10:58:51.595Z,0.40
2023-02-05T10:59:51.593Z,0.30
2023-02-05T11:00:51.597Z,0.40
2023-02-05T11:01:51.714Z,0.40
2023-02-05T11:02:51.664Z,0.50
2023-02-05T11:03:51.591Z,0.40
2023-02-05T11:04:51.589Z,0.40
2023-02-05T11:05:51.584Z,0.50
2023-02-05T11:06:51.587Z,0.30
2023-02-05T11:07:51.581Z,0.40
2023-02-05T11:08:51.588Z,0.40
2023-02-05T11:09:51.578Z,0.40
2023-02-05T11:10:51.582Z,0.40
2023-02-05T11:11:51.575Z,0.40
2023-02-05T11:12:51.583Z,0.40
2023-02-05T11:13:51.572Z,0.40
2023-02-05T11:14:51.577Z,0.40
2023-02-05T11:15:51.602Z,0.40
2023-02-05T11:16:51.576Z,0.30
2023-02-05T11:17:51.592Z,0.40
2023-02-05T11:18:51.573Z,0.40
2023-02-05T11:19:51.566Z,0.30
2023-02-05T11:20:51.575Z,0.30
2023-02-05T11:21:51.570Z,0.40
2023-02-05T11:22:51.569Z,0.40
2023-02-05T11:23:51.559Z,0.50
2023-02-05T11:24:51.568Z,0.40
2023-02-05T11:25:51.572Z,0.50
2023-02-05T11:26:51.576Z,0.40
2023-02-05T11:27:51.572Z,0.40
2023-02-05T11:28:51.563Z,0.30
2023-02-05T11:29:51.556Z,0.40
2023-02-05T11:30:52.655Z,0.50
2023-02-05T11:31:51.627Z,0.30
2023-02-05T11:32:51.558Z,0.40
2023-02-05T11:33:51.581Z,0.40
2023-02-05T11:34:51.556Z,0.30
2023-02-05T11:35:51.547Z,0.30
2023-02-05T11:36:51.556Z,0.40
2023-02-05T11:37:51.546Z,0.40
2023-02-05T11:38:51.557Z,0.40
2023-02-05T11:39:51.554Z,0.40
2023-02-05T11:40:51.550Z,0.40
2023-02-05T11:41:51.544Z,0.50
2023-02-05T11:42:51.547Z,0.40
2023-02-05T11:43:51.549Z,0.40
2023-02-05T11:44:51.545Z,0.30
2023-02-05T11:45:51.537Z,0.40
2023-02-05T11:46:51.613Z,0.30
2023-02-05T11:47:51.536Z,0.40
2023-02-05T11:48:51.548Z,0.40
2023-02-05T11:49:51.559Z,0.40
2023-02-05T11:50:51.539Z,0.40
2023-02-05T11:51:51.531Z,0.40
2023-02-05T11:52:51.540Z,0.40
2023-02-05T11:53:51.535Z,0.40
2023-02-05T11:54:51.545Z,0.40
2023-02-05T11:55:51.526Z,0.40
2023-02-05T11:56:51.536Z,0.40
2023-02-05T11:57:51.527Z,0.40
2023-02-05T11:58:51.533Z,0.40
2023-02-05T11:59:51.524Z,0.40
2023-02-05T12:00:51.530Z,0.40
2023-02-05T12:01:51.542Z,0.30
2023-02-05T12:02:51.636Z,0.40
2023-02-05T12:03:51.521Z,0.30
2023-02-05T12:04:51.526Z,0.40
2023-02-05T12:05:51.565Z,0.50
2023-02-05T12:06:51.525Z,0.30
2023-02-05T12:07:51.516Z,0.30
2023-02-05T12:08:51.535Z,0.40
2023-02-05T12:09:51.514Z,0.40
2023-02-05T12:10:51.521Z,0.40
2023-02-05T12:11:51.513Z,0.40
2023-02-05T12:12:51.521Z,0.40
2023-02-05T12:13:51.516Z,0.40
2023-02-05T12:14:51.524Z,0.30
2023-02-05T12:15:51.509Z,0.40
2023-02-05T12:16:51.515Z,0.40
2023-02-05T12:17:51.516Z,0.40
2023-02-05T12:18:51.518Z,0.40
2023-02-05T12:19:51.507Z,0.40
2023-02-05T12:20:51.526Z,0.40
2023-02-05T12:21:51.582Z,0.40
2023-02-05T12:22:51.510Z,0.40
2023-02-05T12:23:51.502Z,0.40
2023-02-05T12:24:51.519Z,0.40
2023-02-05T12:25:51.500Z,0.40
2023-02-05T12:26:51.512Z,0.40
2023-02-05T12:27:51.532Z,0.40
2023-02-05T12:28:51.505Z,0.40
2023-02-05T12:29:51.504Z,0.50
2023-02-05T12:30:51.596Z,0.40
2023-02-05T12:31:51.577Z,0.40
2023-02-05T12:32:51.496Z,0.30
2023-02-05T12:33:51.502Z,0.40
2023-02-05T12:34:51.495Z,0.30
2023-02-05T12:35:51.494Z,0.40
2023-02-05T12:36:51.485Z,0.40
2023-02-05T12:37:51.525Z,0.30
2023-02-05T12:38:51.482Z,0.40
2023-02-05T12:39:51.488Z,0.40
2023-02-05T12:40:51.491Z,0.40
2023-02-05T12:41:51.485Z,0.40
2023-02-05T12:42:51.483Z,0.40
2023-02-05T12:43:51.485Z,0.40
2023-02-05T12:44:51.474Z,0.30
2023-02-05T12:45:51.549Z,0.30
2023-02-05T12:46:51.477Z,0.40
2023-02-05T12:47:51.477Z,0.40
2023-02-05T12:48:51.481Z,0.40
2023-02-05T12:49:51.478Z,0.30
2023-02-05T12:50:51.468Z,0.40
2023-02-05T12:51:51.473Z,0.30
2023-02-05T12:52:51.466Z,0.40
2023-02-05T12:53:51.518Z,0.40
2023-02-05T12:54:51.478Z,0.30
2023-02-05T12:55:51.470Z,0.40
2023-02-05T12:56:51.465Z,0.40
2023-02-05T12:57:51.481Z,0.70
2023-02-05T12:58:51.460Z,0.40
2023-02-05T12:59:51.464Z,0.40
2023-02-05T13:00:51.479Z,0.30
2023-02-05T13:01:51.472Z,0.40
2023-02-05T13:02:51.476Z,0.30
2023-02-05T13:03:51.567Z,0.40
2023-02-05T13:04:51.458Z,0.40
2023-02-05T13:05:51.475Z,0.30
2023-02-05T13:06:51.455Z,0.40
2023-02-05T13:07:51.459Z,0.50
2023-02-05T13:08:51.462Z,0.40
2023-02-05T13:09:51.484Z,0.40
2023-02-05T13:10:51.457Z,0.40
2023-02-05T13:11:51.470Z,0.40
2023-02-05T13:12:51.449Z,0.40
2023-02-05T13:13:51.465Z,0.50
2023-02-05T13:14:51.452Z,0.30
2023-02-05T13:15:51.464Z,0.30
2023-02-05T13:16:51.489Z,0.40
2023-02-05T13:17:51.457Z,0.40
2023-02-05T13:18:51.441Z,0.30